Terminal Aerodrome Forecast
Issued by NWS Pendleton, OR

Home | Current Version | Previous Version | Text Only | Print | Product List | Glossary On
Versions: 1 2 3 4 5 6 7 8 9 10 11 12 13 14 15 16 17
000
FTUS46 KPDT 250500
TAFPDT
TAF
KPDT 250522Z 2506/2606 27015G25KT P6SM VCSH SCT070 BKN090
     FM251200 25012KT P6SM SCT070
     FM251800 27008KT P6SM SCT060
     FM260100 23005KT P6SM FEW060=

USA.gov is the U.S. government's official web portal to all federal, state and local government web resources and services.